»·PEaware :: DAL1549 KSAN-KLAX

DAL1549 :: KSAN-KLAX

FLIGHT INFORMATION

Flight Status: Arrived
Operator:
Delta Air Lines
More flights by this operator :: More flights under this callsign
Pilot: Jordan D. (16847)
Aircraft: BOEING 737-800
(B738)
More flights by this aircraft type
Origin: KSAN San Diego Intl-Lindbergh
United States
Destination: KLAX Los Angeles Intl
United States
More flights between these airports :: More routes between these airports
Route: +PEBLE6 SLI
File this flight plan on PilotEdge
Remarks: first time flying on pilot edge sry if i make mistakes
Altitude:
(Current/Filed)
12,000ft
Speed:
(Current/Filed)
405kts
Departed: 02-Oct-17 03:49 PM
Arrived: 02-Oct-17 04:16 PM
Distance/Time
Traveled:
94nm/0:27
Distance/Time
To Go:
Arrived

Flight Plot

Page will automatically refresh every two minutes.


Map Options




Map Legend


Flown Route
Filed Route
Departure Airport
Arrival Airport
Navaid (VOR, NDB)
Fix

Horizontal Profiles

Position Reports

Time Latitude Longitude Heading Altitude Ground
Speed
02-Oct-17 15:16 32.733732 -117.203604 267 23ft 0kts
02-Oct-17 15:17 32.733732 -117.203604 267 23ft 0kts
02-Oct-17 15:18 32.733732 -117.203604 267 23ft 0kts
02-Oct-17 15:19 32.733732 -117.203604 267 23ft 0kts
02-Oct-17 15:20 32.733732 -117.203604 267 23ft 0kts
02-Oct-17 15:21 32.733732 -117.203604 267 23ft 0kts
02-Oct-17 15:22 32.733732 -117.203604 267 23ft 0kts
02-Oct-17 15:23 32.733732 -117.203604 267 23ft 0kts
02-Oct-17 15:24 32.733732 -117.203604 267 23ft 0kts
02-Oct-17 15:25 32.733732 -117.203604 267 23ft 0kts
02-Oct-17 15:26 32.733732 -117.203604 267 23ft 0kts
02-Oct-17 15:27 32.733732 -117.203604 267 23ft 0kts
02-Oct-17 15:28 32.733732 -117.203604 267 23ft 0kts
02-Oct-17 15:31 32.733732 -117.203604 267 23ft 0kts
02-Oct-17 15:32 32.733732 -117.203604 267 23ft 0kts
02-Oct-17 15:33 32.733732 -117.203604 267 23ft 0kts
02-Oct-17 15:34 32.733732 -117.203604 267 23ft 0kts
02-Oct-17 15:35 32.733732 -117.203604 267 23ft 0kts
02-Oct-17 15:36 32.733732 -117.203604 267 23ft 0kts
02-Oct-17 15:37 32.733732 -117.203604 267 23ft 0kts
02-Oct-17 15:38 32.733732 -117.203604 267 23ft 0kts
02-Oct-17 15:39 32.733732 -117.203604 267 23ft 0kts
02-Oct-17 15:40 32.733732 -117.203604 267 23ft 0kts
02-Oct-17 15:41 32.733732 -117.203604 267 23ft 0kts
02-Oct-17 15:42 32.733710 -117.203150 285 23ft 2kts
02-Oct-17 15:43 32.733389 -117.202803 354 23ft 0kts
02-Oct-17 15:44 32.733389 -117.202803 354 23ft 0kts
02-Oct-17 15:45 32.733389 -117.202803 354 23ft 0kts
02-Oct-17 15:46 32.733813 -117.202854 354 23ft 14kts
02-Oct-17 15:47 32.735689 -117.201960 134 23ft 9kts
02-Oct-17 15:48 32.733913 -117.195214 107 23ft 31kts
02-Oct-17 15:49 32.731716 -117.185932 104 23ft 33kts
02-Oct-17 15:50 32.729612 -117.176731 88 23ft 10kts
02-Oct-17 15:51 32.729675 -117.176401 67 23ft 0kts
02-Oct-17 15:52 32.729676 -117.176399 67 23ft 0kts
02-Oct-17 15:53 32.730958 -117.178660 285 23ft 70kts
02-Oct-17 15:54 32.744477 -117.233408 284 3366ft 197kts
02-Oct-17 15:55 32.777168 -117.300023 305 6711ft 248kts
02-Oct-17 15:56 32.818021 -117.369465 305 9765ft 262kts
02-Oct-17 15:57 32.862960 -117.437626 320 9960ft 263kts
02-Oct-17 15:58 32.926240 -117.480817 330 9985ft 263kts
02-Oct-17 15:59 32.988118 -117.526452 312 9990ft 260kts
02-Oct-17 16:00 33.030997 -117.595833 305 9990ft 260kts
02-Oct-17 16:01 33.073087 -117.666448 305 9958ft 270kts
02-Oct-17 16:02 33.126951 -117.751656 307 9999ft 342kts
02-Oct-17 16:03 33.190605 -117.835425 329 9991ft 345kts
02-Oct-17 16:04 33.289190 -117.875610 342 9992ft 386kts
02-Oct-17 16:05 33.387027 -117.910577 342 9352ft 327kts
02-Oct-17 16:06 33.466181 -117.939229 342 8453ft 272kts
02-Oct-17 16:07 33.538404 -117.965292 342 7816ft 274kts
02-Oct-17 16:08 33.609101 -117.991019 343 7179ft 268kts
02-Oct-17 16:09 33.679746 -118.016831 343 6990ft 265kts
02-Oct-17 16:10 33.751237 -118.042995 343 6987ft 268kts
02-Oct-17 16:11 33.822711 -118.069204 343 6987ft 269kts
02-Oct-17 16:12 33.875282 -118.088510 343 6917ft 268kts
02-Oct-17 16:13 33.948145 -118.113895 352 4962ft 270kts
02-Oct-17 16:14 33.986663 -118.167527 241 3937ft 235kts
02-Oct-17 16:15 33.960816 -118.203361 241 3301ft 218kts
02-Oct-17 16:16 33.952274 -118.240593 259 2581ft 203kts
02-Oct-17 16:17 33.946171 -118.299013 261 1770ft 147kts
02-Oct-17 16:18 33.941461 -118.345057 261 806ft 130kts
02-Oct-17 16:19 33.937383 -118.385862 261 189ft 115kts
02-Oct-17 16:20 33.936736 -118.404004 308 134ft 3kts
02-Oct-17 16:21 33.936755 -118.404033 308 134ft 0kts
02-Oct-17 16:22 33.936758 -118.404038 308 134ft 0kts

Navigation Log

Ident Type
1. KSAN Airport
2. MELDY Fix
3. PEBLE Fix
4. SLI Navaid
5. KLAX Airport